sensor_id;sensor_type;location;lat;lon;timestamp;temperature;humidity
20158;DHT22;10239;56.820;24.416;2023-03-13T00:01:19;-2.40;99.90
20158;DHT22;10239;56.820;24.416;2023-03-13T00:03:47;-2.40;99.90
20158;DHT22;10239;56.820;24.416;2023-03-13T00:06:16;-2.40;99.90
20158;DHT22;10239;56.820;24.416;2023-03-13T00:08:44;-2.50;99.90
20158;DHT22;10239;56.820;24.416;2023-03-13T00:11:13;-2.50;99.90
20158;DHT22;10239;56.820;24.416;2023-03-13T00:13:42;-2.50;99.90
20158;DHT22;10239;56.820;24.416;2023-03-13T00:16:12;-2.50;99.90
20158;DHT22;10239;56.820;24.416;2023-03-13T00:18:47;-2.50;99.90
20158;DHT22;10239;56.820;24.416;2023-03-13T00:21:18;-2.50;99.90
20158;DHT22;10239;56.820;24.416;2023-03-13T00:23:46;-2.60;99.90
20158;DHT22;10239;56.820;24.416;2023-03-13T00:26:20;-2.60;99.90
20158;DHT22;10239;56.820;24.416;2023-03-13T00:28:48;-2.60;99.90
20158;DHT22;10239;56.820;24.416;2023-03-13T00:31:19;-2.60;99.90
20158;DHT22;10239;56.820;24.416;2023-03-13T00:33:51;-2.60;99.90
20158;DHT22;10239;56.820;24.416;2023-03-13T00:36:28;-2.70;99.90
20158;DHT22;10239;56.820;24.416;2023-03-13T00:38:56;-2.80;99.90
20158;DHT22;10239;56.820;24.416;2023-03-13T00:41:30;-2.80;99.90
20158;DHT22;10239;56.820;24.416;2023-03-13T00:43:58;-2.90;99.90
20158;DHT22;10239;56.820;24.416;2023-03-13T00:46:27;-2.90;99.90
20158;DHT22;10239;56.820;24.416;2023-03-13T00:48:56;-3.00;99.90
20158;DHT22;10239;56.820;24.416;2023-03-13T00:51:24;-3.00;99.90
20158;DHT22;10239;56.820;24.416;2023-03-13T00:53:58;-3.00;99.90
20158;DHT22;10239;56.820;24.416;2023-03-13T00:56:27;-3.00;99.90
20158;DHT22;10239;56.820;24.416;2023-03-13T00:58:56;-3.00;99.90
20158;DHT22;10239;56.820;24.416;2023-03-13T01:01:26;-3.10;99.90
20158;DHT22;10239;56.820;24.416;2023-03-13T01:03:59;-3.10;99.90
20158;DHT22;10239;56.820;24.416;2023-03-13T01:06:31;-3.10;99.90
20158;DHT22;10239;56.820;24.416;2023-03-13T01:09:00;-3.20;99.90
20158;DHT22;10239;56.820;24.416;2023-03-13T01:11:30;-3.20;99.90
20158;DHT22;10239;56.820;24.416;2023-03-13T01:14:01;-3.20;99.90
20158;DHT22;10239;56.820;24.416;2023-03-13T01:16:31;-3.20;99.90
20158;DHT22;10239;56.820;24.416;2023-03-13T01:19:01;-3.20;99.90
20158;DHT22;10239;56.820;24.416;2023-03-13T01:21:30;-3.20;99.90
20158;DHT22;10239;56.820;24.416;2023-03-13T01:23:58;-3.30;99.90
20158;DHT22;10239;56.820;24.416;2023-03-13T01:26:26;-3.30;99.90
20158;DHT22;10239;56.820;24.416;2023-03-13T01:28:55;-3.40;99.90
20158;DHT22;10239;56.820;24.416;2023-03-13T01:31:24;-3.40;99.90
20158;DHT22;10239;56.820;24.416;2023-03-13T01:33:57;-3.40;99.90
20158;DHT22;10239;56.820;24.416;2023-03-13T01:36:26;-3.50;99.90
20158;DHT22;10239;56.820;24.416;2023-03-13T01:38:55;-3.50;99.90
20158;DHT22;10239;56.820;24.416;2023-03-13T01:41:24;-3.60;99.90
20158;DHT22;10239;56.820;24.416;2023-03-13T01:43:53;-3.70;99.90
20158;DHT22;10239;56.820;24.416;2023-03-13T01:46:23;-3.70;99.90
20158;DHT22;10239;56.820;24.416;2023-03-13T01:49:04;-3.80;99.90
20158;DHT22;10239;56.820;24.416;2023-03-13T01:54:23;-4.00;99.90
20158;DHT22;10239;56.820;24.416;2023-03-13T01:57:16;-3.90;99.90
20158;DHT22;10239;56.820;24.416;2023-03-13T02:00:05;-4.00;99.90
20158;DHT22;10239;56.820;24.416;2023-03-13T02:02:54;-4.10;99.90
20158;DHT22;10239;56.820;24.416;2023-03-13T02:05:25;-4.10;99.90
20158;DHT22;10239;56.820;24.416;2023-03-13T02:08:06;-4.10;99.90
20158;DHT22;10239;56.820;24.416;2023-03-13T02:10:41;-4.10;99.90
20158;DHT22;10239;56.820;24.416;2023-03-13T02:13:11;-4.20;99.90
20158;DHT22;10239;56.820;24.416;2023-03-13T02:15:41;-4.30;99.90
20158;DHT22;10239;56.820;24.416;2023-03-13T02:18:10;-4.30;99.90
20158;DHT22;10239;56.820;24.416;2023-03-13T02:20:38;-4.30;99.90
20158;DHT22;10239;56.820;24.416;2023-03-13T02:23:24;-4.30;99.90
20158;DHT22;10239;56.820;24.416;2023-03-13T02:25:54;-4.40;99.90
20158;DHT22;10239;56.820;24.416;2023-03-13T02:28:31;-4.50;99.90
20158;DHT22;10239;56.820;24.416;2023-03-13T02:31:02;-4.50;99.90
20158;DHT22;10239;56.820;24.416;2023-03-13T02:33:37;-4.50;99.90
20158;DHT22;10239;56.820;24.416;2023-03-13T02:36:07;-4.50;99.90
20158;DHT22;10239;56.820;24.416;2023-03-13T02:38:48;-4.60;99.90
20158;DHT22;10239;56.820;24.416;2023-03-13T02:41:19;-4.70;99.90
20158;DHT22;10239;56.820;24.416;2023-03-13T02:43:48;-4.80;99.90
20158;DHT22;10239;56.820;24.416;2023-03-13T02:46:18;-4.80;99.90
20158;DHT22;10239;56.820;24.416;2023-03-13T02:48:52;-4.80;99.90
20158;DHT22;10239;56.820;24.416;2023-03-13T02:51:32;-4.80;99.90
20158;DHT22;10239;56.820;24.416;2023-03-13T02:54:07;-4.80;99.90
20158;DHT22;10239;56.820;24.416;2023-03-13T02:56:38;-4.90;99.90
20158;DHT22;10239;56.820;24.416;2023-03-13T02:59:08;-5.00;99.90
20158;DHT22;10239;56.820;24.416;2023-03-13T03:01:39;-4.90;99.90
20158;DHT22;10239;56.820;24.416;2023-03-13T03:04:08;-4.90;99.90
20158;DHT22;10239;56.820;24.416;2023-03-13T03:06:35;-4.90;99.90
20158;DHT22;10239;56.820;24.416;2023-03-13T03:09:04;-5.00;99.90
20158;DHT22;10239;56.820;24.416;2023-03-13T03:11:34;-4.90;99.90
20158;DHT22;10239;56.820;24.416;2023-03-13T03:14:07;-4.90;99.90
20158;DHT22;10239;56.820;24.416;2023-03-13T03:16:40;-4.90;99.90
20158;DHT22;10239;56.820;24.416;2023-03-13T03:19:08;-4.90;99.90
20158;DHT22;10239;56.820;24.416;2023-03-13T03:21:37;-5.00;99.90
20158;DHT22;10239;56.820;24.416;2023-03-13T03:24:05;-4.90;99.90
20158;DHT22;10239;56.820;24.416;2023-03-13T03:26:34;-4.90;99.90
20158;DHT22;10239;56.820;24.416;2023-03-13T03:29:05;-4.90;99.90
20158;DHT22;10239;56.820;24.416;2023-03-13T03:31:34;-4.80;99.90
20158;DHT22;10239;56.820;24.416;2023-03-13T03:34:02;-4.80;99.90
20158;DHT22;10239;56.820;24.416;2023-03-13T03:36:30;-4.80;99.90
20158;DHT22;10239;56.820;24.416;2023-03-13T03:38:59;-4.80;99.90
20158;DHT22;10239;56.820;24.416;2023-03-13T03:41:27;-4.70;99.90
20158;DHT22;10239;56.820;24.416;2023-03-13T03:43:55;-4.80;99.90
20158;DHT22;10239;56.820;24.416;2023-03-13T03:46:28;-4.90;99.90
20158;DHT22;10239;56.820;24.416;2023-03-13T03:48:55;-4.90;99.90
20158;DHT22;10239;56.820;24.416;2023-03-13T03:51:23;-4.90;99.90
20158;DHT22;10239;56.820;24.416;2023-03-13T03:53:51;-5.00;99.90
20158;DHT22;10239;56.820;24.416;2023-03-13T03:56:19;-5.00;99.90
20158;DHT22;10239;56.820;24.416;2023-03-13T03:58:52;-4.90;99.90
20158;DHT22;10239;56.820;24.416;2023-03-13T04:01:31;-4.90;99.90
20158;DHT22;10239;56.820;24.416;2023-03-13T04:03:59;-4.80;99.90
20158;DHT22;10239;56.820;24.416;2023-03-13T04:06:27;-4.90;99.90
20158;DHT22;10239;56.820;24.416;2023-03-13T04:08:55;-4.90;99.90
20158;DHT22;10239;56.820;24.416;2023-03-13T04:11:25;-4.80;99.90
20158;DHT22;10239;56.820;24.416;2023-03-13T04:13:54;-4.80;99.90
20158;DHT22;10239;56.820;24.416;2023-03-13T04:16:22;-4.90;99.90
20158;DHT22;10239;56.820;24.416;2023-03-13T04:18:52;-4.80;99.90
20158;DHT22;10239;56.820;24.416;2023-03-13T04:21:20;-4.80;99.90
20158;DHT22;10239;56.820;24.416;2023-03-13T04:23:52;-4.70;99.90
20158;DHT22;10239;56.820;24.416;2023-03-13T04:26:20;-4.70;99.90
20158;DHT22;10239;56.820;24.416;2023-03-13T04:28:50;-4.70;99.90
20158;DHT22;10239;56.820;24.416;2023-03-13T04:31:26;-4.50;99.90
20158;DHT22;10239;56.820;24.416;2023-03-13T04:34:32;-4.40;99.90
20158;DHT22;10239;56.820;24.416;2023-03-13T04:37:15;-4.30;99.90
20158;DHT22;10239;56.820;24.416;2023-03-13T04:39:57;-4.20;99.90
20158;DHT22;10239;56.820;24.416;2023-03-13T04:42:43;-4.20;99.90
20158;DHT22;10239;56.820;24.416;2023-03-13T04:45:37;-4.10;99.90
20158;DHT22;10239;56.820;24.416;2023-03-13T04:48:16;-4.10;99.90
20158;DHT22;10239;56.820;24.416;2023-03-13T04:50:52;-4.10;99.90
20158;DHT22;10239;56.820;24.416;2023-03-13T04:53:38;-4.00;99.90
20158;DHT22;10239;56.820;24.416;2023-03-13T04:56:25;-3.80;99.90
20158;DHT22;10239;56.820;24.416;2023-03-13T04:59:26;-3.80;99.90
20158;DHT22;10239;56.820;24.416;2023-03-13T05:01:57;-3.80;99.90
20158;DHT22;10239;56.820;24.416;2023-03-13T05:04:42;-3.70;99.90
20158;DHT22;10239;56.820;24.416;2023-03-13T05:07:13;-3.60;99.90
20158;DHT22;10239;56.820;24.416;2023-03-13T05:10:07;-3.60;99.90
20158;DHT22;10239;56.820;24.416;2023-03-13T05:12:57;-3.60;99.90
20158;DHT22;10239;56.820;24.416;2023-03-13T05:15:31;-3.50;99.90
20158;DHT22;10239;56.820;24.416;2023-03-13T05:18:22;-3.50;99.90
20158;DHT22;10239;56.820;24.416;2023-03-13T05:21:17;-3.50;99.90
20158;DHT22;10239;56.820;24.416;2023-03-13T05:24:03;-3.40;99.90
20158;DHT22;10239;56.820;24.416;2023-03-13T05:26:41;-3.20;99.90
20158;DHT22;10239;56.820;24.416;2023-03-13T05:29:27;-3.30;99.90
20158;DHT22;10239;56.820;24.416;2023-03-13T05:32:14;-3.20;99.90
20158;DHT22;10239;56.820;24.416;2023-03-13T05:35:00;-3.20;99.90
20158;DHT22;10239;56.820;24.416;2023-03-13T05:38:00;-3.00;99.90
20158;DHT22;10239;56.820;24.416;2023-03-13T05:41:02;-2.80;99.90
20158;DHT22;10239;56.820;24.416;2023-03-13T05:43:53;-2.50;99.90
20158;DHT22;10239;56.820;24.416;2023-03-13T05:46:30;-2.20;99.90
20158;DHT22;10239;56.820;24.416;2023-03-13T05:49:15;-1.60;99.90
20158;DHT22;10239;56.820;24.416;2023-03-13T05:52:01;-1.20;99.90
20158;DHT22;10239;56.820;24.416;2023-03-13T05:54:48;-0.70;99.90
20158;DHT22;10239;56.820;24.416;2023-03-13T05:57:22;-0.70;99.90
20158;DHT22;10239;56.820;24.416;2023-03-13T06:00:10;-0.20;99.90
20158;DHT22;10239;56.820;24.416;2023-03-13T06:02:48;-0.10;99.90
20158;DHT22;10239;56.820;24.416;2023-03-13T06:05:22;-0.20;99.90
20158;DHT22;10239;56.820;24.416;2023-03-13T06:07:50;-0.10;99.90
20158;DHT22;10239;56.820;24.416;2023-03-13T06:10:21;0.50;99.90
20158;DHT22;10239;56.820;24.416;2023-03-13T06:12:54;1.00;99.90
20158;DHT22;10239;56.820;24.416;2023-03-13T06:15:25;1.30;99.90
20158;DHT22;10239;56.820;24.416;2023-03-13T06:18:00;1.70;99.90
20158;DHT22;10239;56.820;24.416;2023-03-13T06:20:28;1.50;99.90
20158;DHT22;10239;56.820;24.416;2023-03-13T06:22:55;1.80;99.90
20158;DHT22;10239;56.820;24.416;2023-03-13T06:25:23;2.30;99.90
20158;DHT22;10239;56.820;24.416;2023-03-13T06:27:51;2.20;99.90
20158;DHT22;10239;56.820;24.416;2023-03-13T06:30:19;1.80;99.90
20158;DHT22;10239;56.820;24.416;2023-03-13T06:32:46;1.90;99.90
20158;DHT22;10239;56.820;24.416;2023-03-13T06:35:16;1.90;99.90
20158;DHT22;10239;56.820;24.416;2023-03-13T06:37:43;2.00;99.90
20158;DHT22;10239;56.820;24.416;2023-03-13T06:40:11;2.60;99.90
20158;DHT22;10239;56.820;24.416;2023-03-13T06:42:39;2.90;99.90
20158;DHT22;10239;56.820;24.416;2023-03-13T06:45:06;2.60;99.90
20158;DHT22;10239;56.820;24.416;2023-03-13T06:47:34;2.40;99.90
20158;DHT22;10239;56.820;24.416;2023-03-13T06:50:02;1.90;99.90
20158;DHT22;10239;56.820;24.416;2023-03-13T06:52:29;2.60;99.90
20158;DHT22;10239;56.820;24.416;2023-03-13T06:55:09;3.90;99.90
20158;DHT22;10239;56.820;24.416;2023-03-13T06:57:37;5.10;99.90
20158;DHT22;10239;56.820;24.416;2023-03-13T07:00:05;5.50;99.90
20158;DHT22;10239;56.820;24.416;2023-03-13T07:02:33;6.10;99.90
20158;DHT22;10239;56.820;24.416;2023-03-13T07:05:02;6.60;99.90
20158;DHT22;10239;56.820;24.416;2023-03-13T07:07:33;6.60;99.90
20158;DHT22;10239;56.820;24.416;2023-03-13T07:10:01;6.70;99.90
20158;DHT22;10239;56.820;24.416;2023-03-13T07:12:28;6.70;99.90
20158;DHT22;10239;56.820;24.416;2023-03-13T07:14:56;7.40;99.90
20158;DHT22;10239;56.820;24.416;2023-03-13T07:17:23;7.20;99.90
20158;DHT22;10239;56.820;24.416;2023-03-13T07:19:51;7.30;99.90
20158;DHT22;10239;56.820;24.416;2023-03-13T07:22:18;6.90;99.90
20158;DHT22;10239;56.820;24.416;2023-03-13T07:24:45;7.40;99.90
20158;DHT22;10239;56.820;24.416;2023-03-13T07:27:13;7.50;99.90
20158;DHT22;10239;56.820;24.416;2023-03-13T07:29:43;6.50;99.90
20158;DHT22;10239;56.820;24.416;2023-03-13T07:32:11;6.10;99.90
20158;DHT22;10239;56.820;24.416;2023-03-13T07:34:38;5.10;99.90
20158;DHT22;10239;56.820;24.416;2023-03-13T07:37:06;5.70;99.90
20158;DHT22;10239;56.820;24.416;2023-03-13T07:39:33;6.30;99.90
20158;DHT22;10239;56.820;24.416;2023-03-13T07:42:01;6.40;99.90
20158;DHT22;10239;56.820;24.416;2023-03-13T07:44:29;6.80;99.90
20158;DHT22;10239;56.820;24.416;2023-03-13T07:47:00;7.50;99.90
20158;DHT22;10239;56.820;24.416;2023-03-13T07:49:32;7.10;99.90
20158;DHT22;10239;56.820;24.416;2023-03-13T07:52:02;7.50;99.90
20158;DHT22;10239;56.820;24.416;2023-03-13T07:54:29;8.10;99.90
20158;DHT22;10239;56.820;24.416;2023-03-13T07:56:57;8.90;99.90
20158;DHT22;10239;56.820;24.416;2023-03-13T07:59:24;9.40;99.90
20158;DHT22;10239;56.820;24.416;2023-03-13T08:01:52;8.30;99.90
20158;DHT22;10239;56.820;24.416;2023-03-13T08:04:20;7.90;99.90
20158;DHT22;10239;56.820;24.416;2023-03-13T08:06:48;7.90;99.90
20158;DHT22;10239;56.820;24.416;2023-03-13T08:09:16;8.60;99.90
20158;DHT22;10239;56.820;24.416;2023-03-13T08:11:43;9.00;99.90
20158;DHT22;10239;56.820;24.416;2023-03-13T08:14:11;9.20;99.90
20158;DHT22;10239;56.820;24.416;2023-03-13T08:16:38;8.80;99.90
20158;DHT22;10239;56.820;24.416;2023-03-13T08:19:06;8.60;99.90
20158;DHT22;10239;56.820;24.416;2023-03-13T08:21:36;7.30;99.90
20158;DHT22;10239;56.820;24.416;2023-03-13T08:24:06;7.80;99.90
20158;DHT22;10239;56.820;24.416;2023-03-13T08:26:36;7.10;99.90
20158;DHT22;10239;56.820;24.416;2023-03-13T08:29:07;6.40;99.90
20158;DHT22;10239;56.820;24.416;2023-03-13T08:31:37;6.30;99.90
20158;DHT22;10239;56.820;24.416;2023-03-13T08:34:05;6.20;99.90
20158;DHT22;10239;56.820;24.416;2023-03-13T08:36:35;6.70;99.90
20158;DHT22;10239;56.820;24.416;2023-03-13T08:39:11;6.40;99.90
20158;DHT22;10239;56.820;24.416;2023-03-13T08:41:40;7.00;99.90
20158;DHT22;10239;56.820;24.416;2023-03-13T08:44:11;6.50;99.90
20158;DHT22;10239;56.820;24.416;2023-03-13T08:46:39;6.40;99.90
20158;DHT22;10239;56.820;24.416;2023-03-13T08:49:07;6.60;99.90
20158;DHT22;10239;56.820;24.416;2023-03-13T08:51:35;6.40;99.90
20158;DHT22;10239;56.820;24.416;2023-03-13T08:54:03;6.00;99.90
20158;DHT22;10239;56.820;24.416;2023-03-13T08:56:31;5.10;99.90
20158;DHT22;10239;56.820;24.416;2023-03-13T08:59:01;4.70;99.90
20158;DHT22;10239;56.820;24.416;2023-03-13T09:01:31;4.80;99.90
20158;DHT22;10239;56.820;24.416;2023-03-13T09:04:00;5.70;99.90
20158;DHT22;10239;56.820;24.416;2023-03-13T09:06:34;5.50;99.90
20158;DHT22;10239;56.820;24.416;2023-03-13T09:09:04;5.00;99.90
20158;DHT22;10239;56.820;24.416;2023-03-13T09:11:34;5.20;99.90
20158;DHT22;10239;56.820;24.416;2023-03-13T09:14:02;5.90;99.90
20158;DHT22;10239;56.820;24.416;2023-03-13T09:16:30;5.10;99.90
20158;DHT22;10239;56.820;24.416;2023-03-13T09:18:59;5.70;99.90
20158;DHT22;10239;56.820;24.416;2023-03-13T09:21:29;5.80;99.90
20158;DHT22;10239;56.820;24.416;2023-03-13T09:23:57;5.80;99.90
20158;DHT22;10239;56.820;24.416;2023-03-13T09:26:26;6.20;99.90
20158;DHT22;10239;56.820;24.416;2023-03-13T09:28:54;6.90;99.90
20158;DHT22;10239;56.820;24.416;2023-03-13T09:31:26;6.20;99.90
20158;DHT22;10239;56.820;24.416;2023-03-13T09:33:54;6.90;99.90
20158;DHT22;10239;56.820;24.416;2023-03-13T09:36:23;6.30;99.90
20158;DHT22;10239;56.820;24.416;2023-03-13T09:38:53;6.30;99.90
20158;DHT22;10239;56.820;24.416;2023-03-13T09:41:37;6.50;99.90
20158;DHT22;10239;56.820;24.416;2023-03-13T09:46:58;5.20;99.90
20158;DHT22;10239;56.820;24.416;2023-03-13T09:49:37;5.00;99.90
20158;DHT22;10239;56.820;24.416;2023-03-13T09:52:25;4.40;99.90
20158;DHT22;10239;56.820;24.416;2023-03-13T10:00:12;4.30;99.90
20158;DHT22;10239;56.820;24.416;2023-03-13T10:02:46;4.30;99.90
20158;DHT22;10239;56.820;24.416;2023-03-13T10:05:22;4.20;99.90
20158;DHT22;10239;56.820;24.416;2023-03-13T10:07:50;3.90;99.90
20158;DHT22;10239;56.820;24.416;2023-03-13T10:10:37;4.40;99.90
20158;DHT22;10239;56.820;24.416;2023-03-13T10:14:02;4.50;99.90
20158;DHT22;10239;56.820;24.416;2023-03-13T10:18:55;4.60;99.90
20158;DHT22;10239;56.820;24.416;2023-03-13T10:21:29;4.00;99.90
20158;DHT22;10239;56.820;24.416;2023-03-13T10:24:32;4.20;99.90
20158;DHT22;10239;56.820;24.416;2023-03-13T10:27:02;3.70;99.90
20158;DHT22;10239;56.820;24.416;2023-03-13T10:29:30;4.20;99.90
20158;DHT22;10239;56.820;24.416;2023-03-13T10:31:59;4.40;99.90
20158;DHT22;10239;56.820;24.416;2023-03-13T10:34:29;4.00;99.90
20158;DHT22;10239;56.820;24.416;2023-03-13T10:37:15;4.20;99.90
20158;DHT22;10239;56.820;24.416;2023-03-13T10:39:42;4.20;99.90
20158;DHT22;10239;56.820;24.416;2023-03-13T10:42:23;3.80;99.90
20158;DHT22;10239;56.820;24.416;2023-03-13T10:45:00;4.30;99.90
20158;DHT22;10239;56.820;24.416;2023-03-13T10:47:34;4.80;99.90
20158;DHT22;10239;56.820;24.416;2023-03-13T10:50:02;4.90;99.90
20158;DHT22;10239;56.820;24.416;2023-03-13T10:52:41;4.50;99.90
20158;DHT22;10239;56.820;24.416;2023-03-13T10:55:11;4.10;99.90
20158;DHT22;10239;56.820;24.416;2023-03-13T10:57:42;4.10;99.90
20158;DHT22;10239;56.820;24.416;2023-03-13T11:00:35;3.80;99.90
20158;DHT22;10239;56.820;24.416;2023-03-13T11:03:14;4.00;99.90
20158;DHT22;10239;56.820;24.416;2023-03-13T11:05:57;3.80;99.90
20158;DHT22;10239;56.820;24.416;2023-03-13T11:08:26;4.10;99.90
20158;DHT22;10239;56.820;24.416;2023-03-13T11:10:59;4.40;99.90
20158;DHT22;10239;56.820;24.416;2023-03-13T11:13:41;4.60;99.90
20158;DHT22;10239;56.820;24.416;2023-03-13T11:16:15;4.90;99.90
20158;DHT22;10239;56.820;24.416;2023-03-13T11:22:18;4.70;99.90
20158;DHT22;10239;56.820;24.416;2023-03-13T11:25:13;4.50;99.90
20158;DHT22;10239;56.820;24.416;2023-03-13T11:42:49;4.40;99.90
20158;DHT22;10239;56.820;24.416;2023-03-13T11:48:08;4.00;99.90
20158;DHT22;10239;56.820;24.416;2023-03-13T11:51:05;3.80;99.90
20158;DHT22;10239;56.820;24.416;2023-03-13T11:56:51;3.90;99.90
20158;DHT22;10239;56.820;24.416;2023-03-13T11:59:47;4.10;99.90
20158;DHT22;10239;56.820;24.416;2023-03-13T12:02:35;4.30;99.90
20158;DHT22;10239;56.820;24.416;2023-03-13T12:05:10;4.30;99.90
20158;DHT22;10239;56.820;24.416;2023-03-13T12:07:45;4.10;99.90
20158;DHT22;10239;56.820;24.416;2023-03-13T12:10:18;3.80;99.90
20158;DHT22;10239;56.820;24.416;2023-03-13T12:15:59;4.00;99.90
20158;DHT22;10239;56.820;24.416;2023-03-13T12:18:40;4.40;99.90
20158;DHT22;10239;56.820;24.416;2023-03-13T12:21:22;4.00;99.90
20158;DHT22;10239;56.820;24.416;2023-03-13T12:27:25;3.90;99.90
20158;DHT22;10239;56.820;24.416;2023-03-13T12:30:30;3.90;99.90
20158;DHT22;10239;56.820;24.416;2023-03-13T12:42:22;3.70;99.90
20158;DHT22;10239;56.820;24.416;2023-03-13T12:44:56;3.70;99.90
20158;DHT22;10239;56.820;24.416;2023-03-13T12:47:32;3.60;99.90
20158;DHT22;10239;56.820;24.416;2023-03-13T12:50:38;3.90;99.90
20158;DHT22;10239;56.820;24.416;2023-03-13T12:59:10;3.60;99.90
20158;DHT22;10239;56.820;24.416;2023-03-13T13:01:47;3.60;99.90
20158;DHT22;10239;56.820;24.416;2023-03-13T13:04:21;3.80;99.90
20158;DHT22;10239;56.820;24.416;2023-03-13T13:07:26;3.20;99.90
20158;DHT22;10239;56.820;24.416;2023-03-13T13:12:37;3.20;99.90
20158;DHT22;10239;56.820;24.416;2023-03-13T13:15:24;2.90;99.90
20158;DHT22;10239;56.820;24.416;2023-03-13T13:18:15;2.70;99.90
20158;DHT22;10239;56.820;24.416;2023-03-13T13:23:37;2.90;99.90
20158;DHT22;10239;56.820;24.416;2023-03-13T13:31:44;2.70;99.90
20158;DHT22;10239;56.820;24.416;2023-03-13T13:39:50;2.30;99.90
20158;DHT22;10239;56.820;24.416;2023-03-13T13:47:47;2.30;99.90
20158;DHT22;10239;56.820;24.416;2023-03-13T13:50:20;2.20;99.90
20158;DHT22;10239;56.820;24.416;2023-03-13T13:52:50;1.90;99.90
20158;DHT22;10239;56.820;24.416;2023-03-13T13:58:10;1.80;99.90
20158;DHT22;10239;56.820;24.416;2023-03-13T14:00:42;1.80;99.90
20158;DHT22;10239;56.820;24.416;2023-03-13T14:03:24;1.70;99.90
20158;DHT22;10239;56.820;24.416;2023-03-13T14:08:45;1.80;99.90
20158;DHT22;10239;56.820;24.416;2023-03-13T14:11:33;1.80;99.90
20158;DHT22;10239;56.820;24.416;2023-03-13T14:14:20;2.00;99.90
20158;DHT22;10239;56.820;24.416;2023-03-13T14:16:52;1.90;99.90
20158;DHT22;10239;56.820;24.416;2023-03-13T14:19:29;1.80;99.90
20158;DHT22;10239;56.820;24.416;2023-03-13T14:22:06;1.90;99.90
20158;DHT22;10239;56.820;24.416;2023-03-13T14:24:35;1.90;99.90
20158;DHT22;10239;56.820;24.416;2023-03-13T14:27:14;1.80;99.90
20158;DHT22;10239;56.820;24.416;2023-03-13T14:30:02;1.80;99.90
20158;DHT22;10239;56.820;24.416;2023-03-13T14:32:30;1.80;99.90
20158;DHT22;10239;56.820;24.416;2023-03-13T14:34:58;1.90;99.90
20158;DHT22;10239;56.820;24.416;2023-03-13T14:37:46;1.70;99.90
20158;DHT22;10239;56.820;24.416;2023-03-13T14:42:47;1.90;99.90
20158;DHT22;10239;56.820;24.416;2023-03-13T14:45:21;1.70;99.90
20158;DHT22;10239;56.820;24.416;2023-03-13T14:47:51;1.70;99.90
20158;DHT22;10239;56.820;24.416;2023-03-13T14:50:22;1.80;99.90
20158;DHT22;10239;56.820;24.416;2023-03-13T14:52:58;1.80;99.90
20158;DHT22;10239;56.820;24.416;2023-03-13T14:55:30;1.70;99.90
20158;DHT22;10239;56.820;24.416;2023-03-13T14:58:26;1.60;99.90
20158;DHT22;10239;56.820;24.416;2023-03-13T15:00:55;1.80;99.90
20158;DHT22;10239;56.820;24.416;2023-03-13T15:03:30;1.70;99.90
20158;DHT22;10239;56.820;24.416;2023-03-13T15:06:04;1.50;99.90
20158;DHT22;10239;56.820;24.416;2023-03-13T15:08:37;1.70;99.90
20158;DHT22;10239;56.820;24.416;2023-03-13T15:11:25;1.90;99.90
20158;DHT22;10239;56.820;24.416;2023-03-13T15:13:54;1.70;99.90
20158;DHT22;10239;56.820;24.416;2023-03-13T15:16:24;2.00;99.90
20158;DHT22;10239;56.820;24.416;2023-03-13T15:18:53;1.70;99.90
20158;DHT22;10239;56.820;24.416;2023-03-13T15:21:27;1.60;99.90
20158;DHT22;10239;56.820;24.416;2023-03-13T15:24:15;1.50;99.90
20158;DHT22;10239;56.820;24.416;2023-03-13T15:26:43;1.60;99.90
20158;DHT22;10239;56.820;24.416;2023-03-13T15:29:14;1.70;99.90
20158;DHT22;10239;56.820;24.416;2023-03-13T15:31:44;1.60;99.90
20158;DHT22;10239;56.820;24.416;2023-03-13T15:34:13;1.60;99.90
20158;DHT22;10239;56.820;24.416;2023-03-13T15:36:41;1.70;99.90
20158;DHT22;10239;56.820;24.416;2023-03-13T15:39:16;1.60;99.90
20158;DHT22;10239;56.820;24.416;2023-03-13T15:41:45;1.60;99.90
20158;DHT22;10239;56.820;24.416;2023-03-13T15:44:13;1.70;99.90
20158;DHT22;10239;56.820;24.416;2023-03-13T15:46:40;1.60;99.90
20158;DHT22;10239;56.820;24.416;2023-03-13T15:49:11;1.60;99.90
20158;DHT22;10239;56.820;24.416;2023-03-13T15:51:39;1.50;99.90
20158;DHT22;10239;56.820;24.416;2023-03-13T15:54:06;1.60;99.90
20158;DHT22;10239;56.820;24.416;2023-03-13T15:56:36;1.70;99.90
20158;DHT22;10239;56.820;24.416;2023-03-13T15:59:12;1.60;99.90
20158;DHT22;10239;56.820;24.416;2023-03-13T16:01:41;1.50;99.90
20158;DHT22;10239;56.820;24.416;2023-03-13T16:04:10;1.50;99.90
20158;DHT22;10239;56.820;24.416;2023-03-13T16:06:38;1.70;99.90
20158;DHT22;10239;56.820;24.416;2023-03-13T16:09:06;1.70;99.90
20158;DHT22;10239;56.820;24.416;2023-03-13T16:11:34;1.60;99.90
20158;DHT22;10239;56.820;24.416;2023-03-13T16:14:01;1.60;99.90
20158;DHT22;10239;56.820;24.416;2023-03-13T16:16:33;1.50;99.90
20158;DHT22;10239;56.820;24.416;2023-03-13T16:19:04;1.50;99.90
20158;DHT22;10239;56.820;24.416;2023-03-13T16:21:37;1.60;99.90
20158;DHT22;10239;56.820;24.416;2023-03-13T16:24:10;1.60;99.90
20158;DHT22;10239;56.820;24.416;2023-03-13T16:26:38;1.60;99.90
20158;DHT22;10239;56.820;24.416;2023-03-13T16:29:05;1.60;99.90
20158;DHT22;10239;56.820;24.416;2023-03-13T16:31:33;1.60;99.90
20158;DHT22;10239;56.820;24.416;2023-03-13T16:34:06;1.60;99.90
20158;DHT22;10239;56.820;24.416;2023-03-13T16:36:36;1.60;99.90
20158;DHT22;10239;56.820;24.416;2023-03-13T16:39:15;1.50;99.90
20158;DHT22;10239;56.820;24.416;2023-03-13T16:41:47;1.50;99.90
20158;DHT22;10239;56.820;24.416;2023-03-13T16:44:15;1.50;99.90
20158;DHT22;10239;56.820;24.416;2023-03-13T16:46:42;1.60;99.90
20158;DHT22;10239;56.820;24.416;2023-03-13T16:49:31;1.60;99.90
20158;DHT22;10239;56.820;24.416;2023-03-13T16:51:59;1.60;99.90
20158;DHT22;10239;56.820;24.416;2023-03-13T16:54:26;1.60;99.90
20158;DHT22;10239;56.820;24.416;2023-03-13T16:56:54;1.60;99.90
20158;DHT22;10239;56.820;24.416;2023-03-13T16:59:22;1.50;99.90
20158;DHT22;10239;56.820;24.416;2023-03-13T17:01:50;1.50;99.90
20158;DHT22;10239;56.820;24.416;2023-03-13T17:04:19;1.60;99.90
20158;DHT22;10239;56.820;24.416;2023-03-13T17:10:25;1.50;99.90
20158;DHT22;10239;56.820;24.416;2023-03-13T17:13:04;1.50;99.90
20158;DHT22;10239;56.820;24.416;2023-03-13T17:15:54;1.50;99.90
20158;DHT22;10239;56.820;24.416;2023-03-13T17:18:38;1.50;99.90
20158;DHT22;10239;56.820;24.416;2023-03-13T17:21:26;1.70;99.90
20158;DHT22;10239;56.820;24.416;2023-03-13T17:23:55;1.80;99.90
20158;DHT22;10239;56.820;24.416;2023-03-13T17:26:37;1.70;99.90
20158;DHT22;10239;56.820;24.416;2023-03-13T17:33:03;1.60;99.90
20158;DHT22;10239;56.820;24.416;2023-03-13T17:35:35;1.70;99.90
20158;DHT22;10239;56.820;24.416;2023-03-13T17:41:16;1.70;99.90
20158;DHT22;10239;56.820;24.416;2023-03-13T17:44:45;1.70;99.90
20158;DHT22;10239;56.820;24.416;2023-03-13T18:03:05;1.70;99.90